Aviation Digital Data Service (ADDS)

Output produced by TAFs form (0943 UTC 27 July 2016)
found at http://aviationweather.gov/adds/tafs/
 
KCNM 270520Z 2706/2806 16006KT P6SM SCT120 BKN200